createdAt,value
2019-03-19T00:02:04.386Z,101734.19
2019-03-19T00:05:08.316Z,101735.06
2019-03-19T00:08:12.242Z,101737.02
2019-03-19T00:11:16.052Z,101736.05
2019-03-19T00:14:20.006Z,101743.05
2019-03-19T00:17:23.860Z,101749.09
2019-03-19T00:20:27.734Z,101745.63
2019-03-19T00:23:31.522Z,101756.88
2019-03-19T00:26:35.364Z,101762.05
2019-03-19T00:29:39.235Z,101766.48
2019-03-19T00:32:43.116Z,101771.80
2019-03-19T00:35:47.004Z,101765.50
2019-03-19T00:38:50.906Z,101766.38
2019-03-19T00:41:54.730Z,101765.77
2019-03-19T00:44:58.643Z,101769.97
2019-03-19T00:48:02.557Z,101775.22
2019-03-19T00:51:06.391Z,101780.92
2019-03-19T00:54:10.246Z,101782.50
2019-03-19T00:57:14.053Z,101792.44
2019-03-19T01:00:18.600Z,101793.55
2019-03-19T01:03:22.413Z,101800.81
2019-03-19T01:06:26.265Z,101803.72
2019-03-19T01:09:30.083Z,101803.48
2019-03-19T01:12:34.075Z,101809.42
2019-03-19T01:15:37.974Z,101804.27
2019-03-19T01:18:41.896Z,101807.79
2019-03-19T01:21:45.748Z,101805.53
2019-03-19T01:24:49.583Z,101810.66
2019-03-19T01:27:53.529Z,101817.52
2019-03-19T01:30:57.357Z,101822.72
2019-03-19T01:34:01.293Z,101815.86
2019-03-19T01:37:05.224Z,101819.06
2019-03-19T01:40:09.202Z,101814.40
2019-03-19T01:43:13.037Z,101815.95
2019-03-19T01:46:16.864Z,101821.20
2019-03-19T01:49:20.725Z,101822.44
2019-03-19T01:52:24.544Z,101827.33
2019-03-19T01:55:28.457Z,101834.66
2019-03-19T01:58:32.367Z,101830.97
2019-03-19T02:01:36.211Z,101834.66
2019-03-19T02:04:40.065Z,101840.00
2019-03-19T02:07:43.888Z,101836.39
2019-03-19T02:10:47.811Z,101840.05
2019-03-19T02:13:51.640Z,101847.62
2019-03-19T02:16:55.681Z,101846.93
2019-03-19T02:19:59.504Z,101842.13
2019-03-19T02:23:04.691Z,101841.55
2019-03-19T02:26:16.365Z,101847.42
2019-03-19T02:29:14.332Z,101850.59
2019-03-19T02:32:18.171Z,101851.90
2019-03-19T02:35:22.090Z,101851.85
2019-03-19T02:38:26.011Z,101851.16
2019-03-19T02:41:29.871Z,101853.91
2019-03-19T02:44:33.776Z,101865.64
2019-03-19T02:47:37.745Z,101871.92
2019-03-19T02:50:41.650Z,101873.84
2019-03-19T02:53:45.491Z,101881.61
2019-03-19T02:56:49.314Z,101883.58
2019-03-19T02:59:53.167Z,101878.90
2019-03-19T03:02:57.215Z,101882.39
2019-03-19T03:06:01.210Z,101879.89
2019-03-19T03:09:07.011Z,101875.38
2019-03-19T03:12:10.837Z,101881.48
2019-03-19T03:15:14.822Z,101882.50
2019-03-19T03:18:18.832Z,101883.38
2019-03-19T03:21:22.802Z,101891.58
2019-03-19T03:24:26.652Z,101891.42
2019-03-19T03:27:30.475Z,101897.78
2019-03-19T03:30:34.392Z,101897.48
2019-03-19T03:33:38.221Z,101894.04
2019-03-19T03:36:42.056Z,101889.69
2019-03-19T03:39:45.894Z,101895.94
2019-03-19T03:42:49.902Z,101898.53
2019-03-19T03:45:53.751Z,101911.00
2019-03-19T03:48:57.623Z,101919.85
2019-03-19T03:52:01.463Z,101923.10
2019-03-19T03:55:05.602Z,101936.65
2019-03-19T03:58:09.459Z,101941.13
2019-03-19T04:01:13.406Z,101942.89
2019-03-19T04:04:17.340Z,101938.95
2019-03-19T04:07:21.237Z,101942.70
2019-03-19T04:10:25.062Z,101938.77
2019-03-19T04:13:28.951Z,101950.28
2019-03-19T04:16:32.952Z,101950.75
2019-03-19T04:19:36.880Z,101954.38
2019-03-19T04:22:40.821Z,101968.16
2019-03-19T04:25:44.806Z,101968.00
2019-03-19T04:28:51.942Z,101966.05
2019-03-19T04:31:55.896Z,101975.94
2019-03-19T04:34:59.705Z,101985.17
2019-03-19T04:38:03.611Z,101989.99
2019-03-19T04:41:07.432Z,101992.19
2019-03-19T04:44:11.296Z,101998.20
2019-03-19T04:47:15.110Z,102004.62
2019-03-19T04:50:19.090Z,102004.31
2019-03-19T04:53:24.263Z,102015.16
2019-03-19T04:56:28.290Z,102014.51
2019-03-19T04:59:32.204Z,102018.95
2019-03-19T05:02:36.018Z,102029.20
2019-03-19T05:05:39.834Z,102034.70
2019-03-19T05:08:43.641Z,102031.06
2019-03-19T05:11:47.461Z,102028.39
2019-03-19T05:14:51.275Z,102038.62
2019-03-19T05:17:55.083Z,102040.21
2019-03-19T05:20:58.925Z,102041.61
2019-03-19T05:24:02.735Z,102047.09
2019-03-19T05:27:06.533Z,102045.95
2019-03-19T05:30:11.515Z,102056.83
2019-03-19T05:33:15.305Z,102060.00
2019-03-19T05:36:19.146Z,102059.12
2019-03-19T05:39:23.023Z,102068.08
2019-03-19T05:42:26.846Z,102066.95
2019-03-19T05:45:30.662Z,102081.59
2019-03-19T05:48:34.523Z,102091.02
2019-03-19T05:51:38.332Z,102089.13
2019-03-19T05:54:42.268Z,102089.31
2019-03-19T05:57:49.982Z,102084.22
2019-03-19T06:00:51.792Z,102087.42
2019-03-19T06:03:55.577Z,102090.17
2019-03-19T06:06:59.379Z,102096.20
2019-03-19T06:10:03.198Z,102100.23
2019-03-19T06:13:07.021Z,102100.59
2019-03-19T06:16:10.826Z,102108.89
2019-03-19T06:19:14.676Z,102119.75
2019-03-19T06:22:18.493Z,102119.89
2019-03-19T06:25:22.314Z,102128.15
2019-03-19T06:28:26.115Z,102125.56
2019-03-19T06:31:30.059Z,102128.65
2019-03-19T06:34:33.889Z,102133.55
2019-03-19T06:37:37.764Z,102142.44
2019-03-19T06:40:41.605Z,102135.56
2019-03-19T06:43:45.439Z,102147.75
2019-03-19T06:46:49.350Z,102151.36
2019-03-19T06:49:53.160Z,102145.01
2019-03-19T06:52:57.030Z,102146.60
2019-03-19T06:56:00.802Z,102148.52
2019-03-19T06:59:04.844Z,102154.45
2019-03-19T07:02:08.657Z,102159.48
2019-03-19T07:05:12.671Z,102165.20
2019-03-19T07:08:16.561Z,102167.67
2019-03-19T07:11:20.422Z,102173.59
2019-03-19T07:14:24.282Z,102178.28
2019-03-19T07:17:28.170Z,102177.14
2019-03-19T07:20:32.180Z,102180.34
2019-03-19T07:23:35.991Z,102182.15
2019-03-19T07:26:39.821Z,102182.87
2019-03-19T07:29:43.627Z,102177.27
2019-03-19T07:32:47.579Z,102179.30
2019-03-19T07:35:51.396Z,102185.50
2019-03-19T07:38:55.225Z,102194.89
2019-03-19T07:41:59.052Z,102194.48
2019-03-19T07:45:02.894Z,102196.63
2019-03-19T07:48:06.764Z,102206.48
2019-03-19T07:51:10.587Z,102215.35
2019-03-19T07:54:14.489Z,102224.33
2019-03-19T07:57:18.372Z,102230.14
2019-03-19T08:00:22.362Z,102232.37
2019-03-19T08:03:26.182Z,102232.97
2019-03-19T08:06:30.007Z,102240.08
2019-03-19T08:09:33.893Z,102245.50
2019-03-19T08:12:37.704Z,102258.86
2019-03-19T08:15:41.533Z,102254.53
2019-03-19T08:18:45.353Z,102259.73
2019-03-19T08:21:49.253Z,102263.63
2019-03-19T08:24:53.096Z,102262.83
2019-03-19T08:27:57.044Z,102268.21
2019-03-19T08:31:00.883Z,102265.02
2019-03-19T08:34:04.841Z,102268.81
2019-03-19T08:37:08.652Z,102273.75
2019-03-19T08:40:13.300Z,102287.48
2019-03-19T08:43:17.093Z,102283.06
2019-03-19T08:46:20.982Z,102292.88
2019-03-19T08:49:24.855Z,102296.49
2019-03-19T08:52:28.680Z,102297.37
2019-03-19T08:55:32.507Z,102309.30
2019-03-19T08:58:36.315Z,102318.57
2019-03-19T09:01:40.127Z,102322.58
2019-03-19T09:04:43.952Z,102329.19
2019-03-19T09:07:47.742Z,102320.88
2019-03-19T09:10:51.548Z,102335.39
2019-03-19T09:13:55.368Z,102318.94
2019-03-19T09:16:59.188Z,102320.70
2019-03-19T09:20:03.204Z,102335.87
2019-03-19T09:23:07.054Z,102337.98
2019-03-19T09:26:10.844Z,102353.98
2019-03-19T09:29:17.210Z,102347.28
2019-03-19T09:32:20.202Z,102356.92
2019-03-19T09:35:26.115Z,102357.80
2019-03-19T09:38:29.711Z,102359.23
2019-03-19T09:41:33.510Z,102371.09
2019-03-19T09:44:37.316Z,102358.77
2019-03-19T09:47:41.233Z,102371.58
2019-03-19T09:50:45.035Z,102373.80
2019-03-19T09:53:48.887Z,102379.59
2019-03-19T09:56:52.685Z,102386.14
2019-03-19T09:59:56.503Z,102385.37
2019-03-19T10:03:00.331Z,102385.72
2019-03-19T10:06:13.943Z,102386.77
2019-03-19T10:09:09.952Z,102383.23
2019-03-19T10:12:13.764Z,102382.80
2019-03-19T10:15:17.933Z,102386.31
2019-03-19T10:18:21.735Z,102391.10
2019-03-19T10:21:25.568Z,102391.64
2019-03-19T10:24:29.380Z,102401.41
2019-03-19T10:27:33.217Z,102400.56
2019-03-19T10:30:37.029Z,102410.26
2019-03-19T10:33:40.820Z,102402.13
2019-03-19T10:36:44.712Z,102404.53
2019-03-19T10:39:48.513Z,102401.02
2019-03-19T10:42:52.315Z,102407.55
2019-03-19T10:45:56.139Z,102416.43
2019-03-19T10:48:59.944Z,102417.34
2019-03-19T10:52:03.830Z,102414.67
2019-03-19T10:55:07.923Z,102412.93
2019-03-19T10:58:11.801Z,102430.65
2019-03-19T11:01:15.797Z,102420.45
2019-03-19T11:04:19.683Z,102434.88
2019-03-19T11:07:23.593Z,102431.39
2019-03-19T11:10:27.479Z,102431.98
2019-03-19T11:13:31.271Z,102423.58
2019-03-19T11:16:35.170Z,102426.30
2019-03-19T11:19:39.042Z,102431.58
2019-03-19T11:22:42.982Z,102434.25
2019-03-19T11:25:54.470Z,102431.61
2019-03-19T11:28:52.318Z,102441.31
2019-03-19T11:31:56.143Z,102445.72
2019-03-19T11:35:00.046Z,102451.97
2019-03-19T11:38:04.121Z,102446.27
2019-03-19T11:41:07.929Z,102456.48
2019-03-19T11:44:11.739Z,102460.91
2019-03-19T11:47:15.640Z,102457.44
2019-03-19T11:50:21.141Z,102464.52
2019-03-19T11:53:24.992Z,102463.62
2019-03-19T11:56:28.898Z,102466.23
2019-03-19T11:59:32.711Z,102465.35
2019-03-19T12:02:36.682Z,102464.41
2019-03-19T12:05:40.590Z,102460.58
2019-03-19T12:08:44.390Z,102472.95
2019-03-19T12:11:48.222Z,102461.95
2019-03-19T12:14:52.035Z,102461.95
2019-03-19T12:17:55.913Z,102462.38
2019-03-19T12:20:59.745Z,102471.63
2019-03-19T12:24:03.575Z,102474.70
2019-03-19T12:27:07.542Z,102481.23
2019-03-19T12:30:21.706Z,102476.00
2019-03-19T12:33:17.739Z,102479.55
2019-03-19T12:36:21.524Z,102487.44
2019-03-19T12:39:25.402Z,102485.56
2019-03-19T12:42:29.250Z,102485.34
2019-03-19T12:45:33.224Z,102484.94
2019-03-19T12:48:37.134Z,102490.85
2019-03-19T12:51:40.958Z,102486.38
2019-03-19T12:54:44.833Z,102483.67
2019-03-19T12:57:48.758Z,102485.47
2019-03-19T13:00:53.502Z,102498.27
2019-03-19T13:03:57.313Z,102496.16
2019-03-19T13:07:01.142Z,102497.52
2019-03-19T13:10:06.609Z,102495.39
2019-03-19T13:13:10.419Z,102493.65
2019-03-19T13:16:14.333Z,102500.69
2019-03-19T13:19:18.116Z,102499.96
2019-03-19T13:22:21.928Z,102491.56
2019-03-19T13:25:25.991Z,102498.20
2019-03-19T13:28:29.766Z,102510.58
2019-03-19T13:31:33.582Z,102509.59
2019-03-19T13:34:37.392Z,102508.26
2019-03-19T13:37:41.207Z,102510.47
2019-03-19T13:40:45.048Z,102518.42
2019-03-19T13:43:48.883Z,102512.72
2019-03-19T13:46:52.708Z,102512.38
2019-03-19T13:49:56.550Z,102517.20
2019-03-19T13:53:00.439Z,102517.66
2019-03-19T13:56:04.271Z,102526.50
2019-03-19T13:59:08.071Z,102528.20
2019-03-19T14:02:11.961Z,102523.78
2019-03-19T14:05:15.939Z,102533.55
2019-03-19T14:08:19.781Z,102530.42
2019-03-19T14:11:23.584Z,102534.36
2019-03-19T14:14:27.393Z,102536.61
2019-03-19T14:17:31.249Z,102542.01
2019-03-19T14:20:35.099Z,102548.16
2019-03-19T14:23:38.961Z,102545.90
2019-03-19T14:26:42.760Z,102545.91
2019-03-19T14:29:46.681Z,102551.63
2019-03-19T14:32:50.600Z,102552.00
2019-03-19T14:35:54.454Z,102555.02
2019-03-19T14:38:58.285Z,102552.05
2019-03-19T14:42:02.157Z,102561.73
2019-03-19T14:45:06.598Z,102569.72
2019-03-19T14:48:10.502Z,102572.32
2019-03-19T14:51:14.377Z,102574.91
2019-03-19T14:54:18.193Z,102586.29
2019-03-19T14:57:22.077Z,102583.97
2019-03-19T15:00:25.883Z,102587.48
2019-03-19T15:03:29.715Z,102580.38
2019-03-19T15:06:33.616Z,102586.06
2019-03-19T15:09:37.425Z,102588.01
2019-03-19T15:12:41.327Z,102585.38
2019-03-19T15:15:45.233Z,102587.05
2019-03-19T15:18:49.070Z,102583.64
2019-03-19T15:21:52.876Z,102577.86
2019-03-19T15:24:56.706Z,102582.77
2019-03-19T15:28:00.508Z,102581.88
2019-03-19T15:31:04.410Z,102582.70
2019-03-19T15:34:08.235Z,102582.72
2019-03-19T15:37:12.139Z,102585.92
2019-03-19T15:40:15.931Z,102588.08
2019-03-19T15:43:19.751Z,102591.48
2019-03-19T15:46:23.570Z,102592.31
2019-03-19T15:49:37.646Z,102588.80
2019-03-19T15:52:32.892Z,102583.49
2019-03-19T15:55:36.787Z,102593.75
2019-03-19T15:58:40.608Z,102596.89
2019-03-19T16:01:44.423Z,102595.27
2019-03-19T16:04:48.236Z,102591.78
2019-03-19T16:07:52.047Z,102606.35
2019-03-19T16:10:55.859Z,102601.97
2019-03-19T16:13:59.685Z,102602.50
2019-03-19T16:17:03.570Z,102611.22
2019-03-19T16:20:10.322Z,102616.99
2019-03-19T16:23:14.157Z,102613.78
2019-03-19T16:26:17.971Z,102624.97
2019-03-19T16:29:21.788Z,102622.37
2019-03-19T16:32:25.683Z,102625.34
2019-03-19T16:35:29.535Z,102632.81
2019-03-19T16:38:33.733Z,102635.63
2019-03-19T16:41:37.726Z,102638.61
2019-03-19T16:44:41.614Z,102644.56
2019-03-19T16:47:45.471Z,102647.66
2019-03-19T16:50:49.275Z,102649.83
2019-03-19T16:53:53.111Z,102647.94
2019-03-19T16:56:56.999Z,102659.77
2019-03-19T17:00:00.816Z,102656.38
2019-03-19T17:03:04.766Z,102652.05
2019-03-19T17:06:08.618Z,102657.58
2019-03-19T17:09:12.408Z,102662.75
2019-03-19T17:12:16.219Z,102663.13
2019-03-19T17:15:20.206Z,102664.08
2019-03-19T17:18:24.027Z,102673.31
2019-03-19T17:21:27.907Z,102670.77
2019-03-19T17:24:31.718Z,102673.48
2019-03-19T17:27:35.523Z,102680.94
2019-03-19T17:30:39.461Z,102681.85
2019-03-19T17:33:43.263Z,102685.03
2019-03-19T17:36:47.096Z,102691.20
2019-03-19T17:39:50.909Z,102686.30
2019-03-19T17:42:54.786Z,102687.81
2019-03-19T17:45:58.700Z,102698.52
2019-03-19T17:49:02.503Z,102698.97
2019-03-19T17:52:06.424Z,102698.25
2019-03-19T17:55:10.834Z,102706.31
2019-03-19T17:58:14.644Z,102714.06
2019-03-19T18:01:18.505Z,102715.87
2019-03-19T18:04:22.286Z,102711.97
2019-03-19T18:07:26.168Z,102718.84
2019-03-19T18:10:30.071Z,102711.85
2019-03-19T18:13:33.964Z,102711.97
2019-03-19T18:16:37.788Z,102716.78
2019-03-19T18:19:41.599Z,102728.19
2019-03-19T18:22:45.549Z,102727.73
2019-03-19T18:25:49.368Z,102733.42
2019-03-19T18:28:53.176Z,102743.62
2019-03-19T18:31:57.050Z,102738.82
2019-03-19T18:35:00.852Z,102748.58
2019-03-19T18:38:04.810Z,102751.52
2019-03-19T18:41:08.642Z,102747.05
2019-03-19T18:44:12.477Z,102745.02
2019-03-19T18:47:16.307Z,102752.70
2019-03-19T18:50:20.336Z,102765.73
2019-03-19T18:53:24.125Z,102764.22
2019-03-19T18:56:27.934Z,102769.09
2019-03-19T18:59:31.761Z,102770.98
2019-03-19T19:02:35.584Z,102768.94
2019-03-19T19:05:39.461Z,102778.14
2019-03-19T19:08:43.287Z,102777.77
2019-03-19T19:11:47.089Z,102775.14
2019-03-19T19:14:50.890Z,102782.42
2019-03-19T19:17:54.758Z,102786.78
2019-03-19T19:20:58.556Z,102788.80
2019-03-19T19:24:02.373Z,102796.64
2019-03-19T19:27:06.281Z,102793.30
2019-03-19T19:30:12.849Z,102788.64
2019-03-19T19:33:16.709Z,102786.33
2019-03-19T19:36:20.521Z,102786.97
2019-03-19T19:39:24.355Z,102787.83
2019-03-19T19:42:28.172Z,102789.06
2019-03-19T19:45:31.958Z,102790.48
2019-03-19T19:48:35.784Z,102791.77
2019-03-19T19:51:39.659Z,102792.05
2019-03-19T19:54:43.455Z,102794.42
2019-03-19T19:57:47.690Z,102791.02
2019-03-19T20:00:51.583Z,102797.27
2019-03-19T20:03:55.413Z,102806.84
2019-03-19T20:06:59.200Z,102807.77
2019-03-19T20:10:03.073Z,102810.09
2019-03-19T20:13:06.975Z,102814.84
2019-03-19T20:16:10.782Z,102815.35
2019-03-19T20:19:14.592Z,102820.08
2019-03-19T20:22:18.401Z,102812.36
2019-03-19T20:25:22.283Z,102807.02
2019-03-19T20:28:26.155Z,102805.31
2019-03-19T20:31:30.011Z,102802.41
2019-03-19T20:34:33.815Z,102812.69
2019-03-19T20:37:40.061Z,102813.80
2019-03-19T20:40:43.162Z,102809.09
2019-03-19T20:43:47.039Z,102809.77
2019-03-19T20:46:50.865Z,102806.93
2019-03-19T20:49:54.683Z,102803.31
2019-03-19T20:52:58.686Z,102793.88
2019-03-19T20:56:02.584Z,102785.81
2019-03-19T20:59:06.440Z,102786.04
2019-03-19T21:02:10.229Z,102787.55
2019-03-19T21:05:14.319Z,102787.33
2019-03-19T21:08:18.127Z,102794.70
2019-03-19T21:11:22.042Z,102801.52
2019-03-19T21:14:25.844Z,102799.70
2019-03-19T21:17:29.643Z,102804.80
2019-03-19T21:20:33.440Z,102803.66
2019-03-19T21:23:38.344Z,102810.47
2019-03-19T21:26:42.257Z,102812.92
2019-03-19T21:29:46.276Z,102817.30
2019-03-19T21:32:50.685Z,102815.21
2019-03-19T21:35:54.957Z,102813.53
2019-03-19T21:38:59.095Z,102813.93
2019-03-19T21:42:03.087Z,102812.22
2019-03-19T21:45:07.893Z,102816.16
2019-03-19T21:48:11.976Z,102811.98
2019-03-19T21:51:16.518Z,102812.63
2019-03-19T21:54:20.548Z,102805.34
2019-03-19T21:57:24.751Z,102805.70
2019-03-19T22:00:28.870Z,102806.55
2019-03-19T22:03:32.772Z,102808.33
2019-03-19T22:06:36.613Z,102808.33
2019-03-19T22:09:40.443Z,102820.88
2019-03-19T22:12:44.359Z,102821.65
2019-03-19T22:15:48.126Z,102824.10
2019-03-19T22:18:51.944Z,102823.53
2019-03-19T22:21:55.782Z,102823.89
2019-03-19T22:24:59.613Z,102824.27
2019-03-19T22:28:03.582Z,102816.73
2019-03-19T22:31:07.452Z,102818.55
2019-03-19T22:34:14.316Z,102816.63
2019-03-19T22:37:16.887Z,102813.73
2019-03-19T22:40:20.791Z,102816.21
2019-03-19T22:43:25.985Z,102809.52
2019-03-19T22:46:29.897Z,102800.71
2019-03-19T22:49:33.776Z,102800.61
2019-03-19T22:52:37.613Z,102797.62
2019-03-19T22:55:41.463Z,102798.72
2019-03-19T22:58:45.305Z,102798.25
2019-03-19T23:01:49.146Z,102794.78
2019-03-19T23:04:53.053Z,102784.59
2019-03-19T23:07:56.945Z,102789.75
2019-03-19T23:11:00.748Z,102796.57
2019-03-19T23:14:04.727Z,102784.67
2019-03-19T23:17:08.633Z,102783.73
2019-03-19T23:20:12.681Z,102783.66
2019-03-19T23:23:16.531Z,102788.80
2019-03-19T23:26:20.366Z,102784.80
2019-03-19T23:29:24.269Z,102791.78
2019-03-19T23:32:28.193Z,102789.30
2019-03-19T23:35:32.027Z,102771.19
2019-03-19T23:38:35.848Z,102775.87
2019-03-19T23:41:39.681Z,102770.06
2019-03-19T23:44:43.506Z,102775.77
2019-03-19T23:47:47.475Z,102789.36
2019-03-19T23:50:51.302Z,102789.32
2019-03-19T23:53:55.182Z,102798.96
2019-03-19T23:56:59.095Z,102800.31
